Aérodrome :
LOGIN :

S'inscrire | Disclaimer

   EN    FR    IT 

 










Légende :    VFR   VFR Marginal   IFR   IFR Intensif   IFR Très Intensif
Visi : 
Plafond : 
>= 8 km
>= 3000ft
5 à 8 km
1000 à 3000 ft
1500m à 5 km
500 à 1000 ft
800 à 1500m
200 à 500 ft
< 800m
< 200 ft
Symboles :   Orages  Brouillard  Fortes neiges  Fortes précipitations  Vent > 20 kt
SIGMETs :   Divers  Orages  Givrage  Turbulence  Onde Orograph.  Cendres Volcan.







- Altitude de l'aérodrome : 650 ft
- Code IATA : ZJI


LSZL - Locarno

DERNIER METAR :
  • 232350Z AUTO 00000KT 2900NDV BR NCD 02/02 Q1022 RMK

METARs EXPIRÉS :
  • 232250Z AUTO VRB01KT 2800NDV BCFG FEW033 03/02 Q1022 RMK
  • 232150Z AUTO 00000KT 2400NDV BR NCD 03/02 Q1022 RMK

TAF TAF LSZL
Valide du 23 à 18h jusqu'au 24 à 03h UTC


231725Z 2318/2403 VRB01KT 3500 BR SCT028
PROB40 2318/2403 2500
PROB30 2322/2403 0800 BCFG BKN005
Pas de NOTAMs connus pour ce terrain.



MET'MAP, la Météo Aéronautique d'un coup d'oeil ! - Copyright ORBIFLY Décembre 2007 - Disclaimer

ORBIFLY MET'MAP TEAM :

Programmation & Développement : Alexandra Zaïnal
Conception & Développement : Baudouin d'Aumeries
Co-Programmation & Développement : Marc-Olivier Méhu
Soutien technique & logistique : Manuel Goepfert

Contact : metmap@orbifly.com




SOURCES & CREDITS :

   NOAA